Terminal Aerodrome Forecast
Issued by NWS Norman, OK

Home | Current Version | Previous Version | Text Only | Print | Product List | Glossary On
Versions: 1 2 3 4 5 6 7 8 9 10 11 12 13 14
000
FTUS44 KOUN 230520
TAFSPS
TAF
KSPS 230520Z 2306/2406 14009KT P6SM SKC
     FM231000 17010KT P6SM SKC
     FM231500 18019G28KT P6SM FEW060 SCT250
     FM240000 16020G28KT P6SM SCT060 OVC250=

USA.gov is the U.S. government's official web portal to all federal, state and local government web resources and services.